sensor_id;sensor_type;location;lat;lon;timestamp;temperature;humidity
73939;DHT22;62291;47.554;8.504;2022-09-12T00:01:33;10.90;99.90
73939;DHT22;62291;47.554;8.504;2022-09-12T00:04:00;10.90;99.90
73939;DHT22;62291;47.554;8.504;2022-09-12T00:06:31;10.90;99.90
73939;DHT22;62291;47.554;8.504;2022-09-12T00:09:02;10.90;99.90
73939;DHT22;62291;47.554;8.504;2022-09-12T00:11:28;10.90;99.90
73939;DHT22;62291;47.554;8.504;2022-09-12T00:13:56;10.90;99.90
73939;DHT22;62291;47.554;8.504;2022-09-12T00:16:23;10.90;99.90
73939;DHT22;62291;47.554;8.504;2022-09-12T00:18:49;11.00;99.90
73939;DHT22;62291;47.554;8.504;2022-09-12T00:21:17;11.10;99.90
73939;DHT22;62291;47.554;8.504;2022-09-12T00:23:43;11.20;99.90
73939;DHT22;62291;47.554;8.504;2022-09-12T00:26:08;11.10;99.90
73939;DHT22;62291;47.554;8.504;2022-09-12T00:28:36;11.10;99.90
73939;DHT22;62291;47.554;8.504;2022-09-12T00:31:10;11.00;99.90
73939;DHT22;62291;47.554;8.504;2022-09-12T00:33:36;10.90;99.90
73939;DHT22;62291;47.554;8.504;2022-09-12T00:36:12;10.90;99.90
73939;DHT22;62291;47.554;8.504;2022-09-12T00:38:39;10.90;99.90
73939;DHT22;62291;47.554;8.504;2022-09-12T00:41:11;10.80;99.90
73939;DHT22;62291;47.554;8.504;2022-09-12T00:43:40;10.70;99.90
73939;DHT22;62291;47.554;8.504;2022-09-12T00:48:55;10.60;99.90
73939;DHT22;62291;47.554;8.504;2022-09-12T00:51:22;10.60;99.90
73939;DHT22;62291;47.554;8.504;2022-09-12T00:53:50;10.60;99.90
73939;DHT22;62291;47.554;8.504;2022-09-12T00:56:19;10.50;99.90
73939;DHT22;62291;47.554;8.504;2022-09-12T00:59:16;10.60;99.90
73939;DHT22;62291;47.554;8.504;2022-09-12T01:01:43;10.60;99.90
73939;DHT22;62291;47.554;8.504;2022-09-12T01:04:12;10.70;99.90
73939;DHT22;62291;47.554;8.504;2022-09-12T01:06:41;10.70;99.90
73939;DHT22;62291;47.554;8.504;2022-09-12T01:09:08;10.70;99.90
73939;DHT22;62291;47.554;8.504;2022-09-12T01:11:38;10.70;99.90
73939;DHT22;62291;47.554;8.504;2022-09-12T01:14:04;10.60;99.90
73939;DHT22;62291;47.554;8.504;2022-09-12T01:16:31;10.60;99.90
73939;DHT22;62291;47.554;8.504;2022-09-12T01:27:31;10.50;99.90
73939;DHT22;62291;47.554;8.504;2022-09-12T01:30:23;10.40;99.90
73939;DHT22;62291;47.554;8.504;2022-09-12T01:38:38;10.30;99.90
73939;DHT22;62291;47.554;8.504;2022-09-12T01:41:12;10.30;99.90
73939;DHT22;62291;47.554;8.504;2022-09-12T01:44:00;10.30;99.90
73939;DHT22;62291;47.554;8.504;2022-09-12T01:46:46;10.30;99.90
73939;DHT22;62291;47.554;8.504;2022-09-12T01:52:18;10.30;99.90
73939;DHT22;62291;47.554;8.504;2022-09-12T01:54:50;10.30;99.90
73939;DHT22;62291;47.554;8.504;2022-09-12T01:57:21;10.30;99.90
73939;DHT22;62291;47.554;8.504;2022-09-12T01:59:53;10.40;99.90
73939;DHT22;62291;47.554;8.504;2022-09-12T02:02:50;10.40;99.90
73939;DHT22;62291;47.554;8.504;2022-09-12T02:05:26;10.50;99.90
73939;DHT22;62291;47.554;8.504;2022-09-12T02:10:32;10.60;99.90
73939;DHT22;62291;47.554;8.504;2022-09-12T02:13:43;10.70;99.90
73939;DHT22;62291;47.554;8.504;2022-09-12T02:16:24;10.80;99.90
73939;DHT22;62291;47.554;8.504;2022-09-12T02:18:54;10.90;99.90
73939;DHT22;62291;47.554;8.504;2022-09-12T02:21:23;10.90;99.90
73939;DHT22;62291;47.554;8.504;2022-09-12T02:23:56;11.00;99.90
73939;DHT22;62291;47.554;8.504;2022-09-12T02:26:35;11.00;99.90
73939;DHT22;62291;47.554;8.504;2022-09-12T02:29:03;11.00;99.90
73939;DHT22;62291;47.554;8.504;2022-09-12T02:31:44;11.00;99.90
73939;DHT22;62291;47.554;8.504;2022-09-12T02:40:01;10.70;99.90
73939;DHT22;62291;47.554;8.504;2022-09-12T02:42:27;10.70;99.90
73939;DHT22;62291;47.554;8.504;2022-09-12T02:44:54;10.70;99.90
73939;DHT22;62291;47.554;8.504;2022-09-12T02:47:44;10.70;99.90
73939;DHT22;62291;47.554;8.504;2022-09-12T02:50:12;10.70;99.90
73939;DHT22;62291;47.554;8.504;2022-09-12T02:52:39;10.80;99.90
73939;DHT22;62291;47.554;8.504;2022-09-12T02:55:05;10.70;99.90
73939;DHT22;62291;47.554;8.504;2022-09-12T02:57:31;10.70;99.90
73939;DHT22;62291;47.554;8.504;2022-09-12T02:59:59;10.70;99.90
73939;DHT22;62291;47.554;8.504;2022-09-12T03:05:27;10.80;99.90
73939;DHT22;62291;47.554;8.504;2022-09-12T03:08:36;10.90;99.90
73939;DHT22;62291;47.554;8.504;2022-09-12T03:16:52;10.90;99.90
73939;DHT22;62291;47.554;8.504;2022-09-12T03:19:44;10.90;99.90
73939;DHT22;62291;47.554;8.504;2022-09-12T03:22:38;11.00;99.90
73939;DHT22;62291;47.554;8.504;2022-09-12T03:25:27;10.90;99.90
73939;DHT22;62291;47.554;8.504;2022-09-12T03:28:15;10.90;99.90
73939;DHT22;62291;47.554;8.504;2022-09-12T03:30:48;11.00;99.90
73939;DHT22;62291;47.554;8.504;2022-09-12T03:33:20;11.10;99.90
73939;DHT22;62291;47.554;8.504;2022-09-12T03:35:46;11.10;99.90
73939;DHT22;62291;47.554;8.504;2022-09-12T03:38:13;11.20;99.90
73939;DHT22;62291;47.554;8.504;2022-09-12T03:40:39;11.20;99.90
73939;DHT22;62291;47.554;8.504;2022-09-12T03:43:06;11.20;99.90
73939;DHT22;62291;47.554;8.504;2022-09-12T03:45:32;11.20;99.90
73939;DHT22;62291;47.554;8.504;2022-09-12T03:47:58;11.30;99.90
73939;DHT22;62291;47.554;8.504;2022-09-12T03:50:27;11.30;99.90
73939;DHT22;62291;47.554;8.504;2022-09-12T03:52:52;11.30;99.90
73939;DHT22;62291;47.554;8.504;2022-09-12T03:55:18;11.30;99.90
73939;DHT22;62291;47.554;8.504;2022-09-12T03:57:44;11.30;99.90
73939;DHT22;62291;47.554;8.504;2022-09-12T04:00:10;11.40;99.90
73939;DHT22;62291;47.554;8.504;2022-09-12T04:02:36;11.40;99.90
73939;DHT22;62291;47.554;8.504;2022-09-12T04:05:02;11.40;99.90
73939;DHT22;62291;47.554;8.504;2022-09-12T04:07:28;11.40;99.90
73939;DHT22;62291;47.554;8.504;2022-09-12T04:09:53;11.40;99.90
73939;DHT22;62291;47.554;8.504;2022-09-12T04:12:19;11.50;99.90
73939;DHT22;62291;47.554;8.504;2022-09-12T04:14:45;11.50;99.90
73939;DHT22;62291;47.554;8.504;2022-09-12T04:17:11;11.50;99.90
73939;DHT22;62291;47.554;8.504;2022-09-12T04:19:37;11.50;99.90
73939;DHT22;62291;47.554;8.504;2022-09-12T04:22:02;11.60;99.90
73939;DHT22;62291;47.554;8.504;2022-09-12T04:24:28;11.50;99.90
73939;DHT22;62291;47.554;8.504;2022-09-12T04:26:54;11.50;99.90
73939;DHT22;62291;47.554;8.504;2022-09-12T04:29:20;11.50;99.90
73939;DHT22;62291;47.554;8.504;2022-09-12T04:31:46;11.40;99.90
73939;DHT22;62291;47.554;8.504;2022-09-12T04:34:11;11.40;99.90
73939;DHT22;62291;47.554;8.504;2022-09-12T04:36:37;11.30;99.90
73939;DHT22;62291;47.554;8.504;2022-09-12T04:39:04;11.30;99.90
73939;DHT22;62291;47.554;8.504;2022-09-12T04:41:33;11.30;99.90
73939;DHT22;62291;47.554;8.504;2022-09-12T04:44:01;11.30;99.90
73939;DHT22;62291;47.554;8.504;2022-09-12T04:46:29;11.30;99.90
73939;DHT22;62291;47.554;8.504;2022-09-12T04:48:55;11.30;99.90
73939;DHT22;62291;47.554;8.504;2022-09-12T04:51:29;11.30;99.90
73939;DHT22;62291;47.554;8.504;2022-09-12T04:54:07;11.30;99.90
73939;DHT22;62291;47.554;8.504;2022-09-12T04:56:40;11.30;99.90
73939;DHT22;62291;47.554;8.504;2022-09-12T04:59:06;11.40;99.90
73939;DHT22;62291;47.554;8.504;2022-09-12T05:01:33;11.40;99.90
73939;DHT22;62291;47.554;8.504;2022-09-12T05:03:59;11.40;99.90
73939;DHT22;62291;47.554;8.504;2022-09-12T05:06:30;11.50;99.90
73939;DHT22;62291;47.554;8.504;2022-09-12T05:08:57;11.40;99.90
73939;DHT22;62291;47.554;8.504;2022-09-12T05:11:25;11.40;99.90
73939;DHT22;62291;47.554;8.504;2022-09-12T05:13:51;11.50;99.90
73939;DHT22;62291;47.554;8.504;2022-09-12T05:16:18;11.50;99.90
73939;DHT22;62291;47.554;8.504;2022-09-12T05:18:45;11.50;99.90
73939;DHT22;62291;47.554;8.504;2022-09-12T05:21:14;11.50;99.90
73939;DHT22;62291;47.554;8.504;2022-09-12T05:23:40;11.50;99.90
73939;DHT22;62291;47.554;8.504;2022-09-12T05:26:07;11.60;99.90
73939;DHT22;62291;47.554;8.504;2022-09-12T05:28:35;11.60;99.90
73939;DHT22;62291;47.554;8.504;2022-09-12T05:31:12;11.60;99.90
73939;DHT22;62291;47.554;8.504;2022-09-12T05:33:39;11.60;99.90
73939;DHT22;62291;47.554;8.504;2022-09-12T05:36:09;11.70;99.90
73939;DHT22;62291;47.554;8.504;2022-09-12T05:38:35;11.70;99.90
73939;DHT22;62291;47.554;8.504;2022-09-12T05:43:36;11.80;99.90
73939;DHT22;62291;47.554;8.504;2022-09-12T05:46:07;11.90;99.90
73939;DHT22;62291;47.554;8.504;2022-09-12T05:48:37;11.90;99.90
73939;DHT22;62291;47.554;8.504;2022-09-12T05:51:09;11.90;99.90
73939;DHT22;62291;47.554;8.504;2022-09-12T05:53:35;11.90;99.90
73939;DHT22;62291;47.554;8.504;2022-09-12T05:56:12;12.00;99.90
73939;DHT22;62291;47.554;8.504;2022-09-12T05:58:40;12.10;99.90
73939;DHT22;62291;47.554;8.504;2022-09-12T06:01:09;12.20;99.90
73939;DHT22;62291;47.554;8.504;2022-09-12T06:03:42;12.30;99.90
73939;DHT22;62291;47.554;8.504;2022-09-12T06:06:13;12.20;99.90
73939;DHT22;62291;47.554;8.504;2022-09-12T06:08:41;12.20;99.90
73939;DHT22;62291;47.554;8.504;2022-09-12T06:11:09;12.20;99.90
73939;DHT22;62291;47.554;8.504;2022-09-12T06:13:36;12.30;99.90
73939;DHT22;62291;47.554;8.504;2022-09-12T06:16:08;12.30;99.90
73939;DHT22;62291;47.554;8.504;2022-09-12T06:18:36;12.30;99.90
73939;DHT22;62291;47.554;8.504;2022-09-12T06:23:28;12.40;99.90
73939;DHT22;62291;47.554;8.504;2022-09-12T06:25:54;12.40;99.90
73939;DHT22;62291;47.554;8.504;2022-09-12T06:28:20;12.50;99.90
73939;DHT22;62291;47.554;8.504;2022-09-12T06:30:45;12.70;99.90
73939;DHT22;62291;47.554;8.504;2022-09-12T06:33:11;12.80;99.90
73939;DHT22;62291;47.554;8.504;2022-09-12T06:35:37;12.80;99.90
73939;DHT22;62291;47.554;8.504;2022-09-12T06:38:03;12.90;99.90
73939;DHT22;62291;47.554;8.504;2022-09-12T06:40:30;12.90;99.90
73939;DHT22;62291;47.554;8.504;2022-09-12T06:42:56;12.90;99.90
73939;DHT22;62291;47.554;8.504;2022-09-12T06:45:22;13.00;99.90
73939;DHT22;62291;47.554;8.504;2022-09-12T06:47:47;13.20;99.90
73939;DHT22;62291;47.554;8.504;2022-09-12T06:50:13;13.30;99.90
73939;DHT22;62291;47.554;8.504;2022-09-12T06:52:38;13.60;99.90
73939;DHT22;62291;47.554;8.504;2022-09-12T06:55:04;13.80;99.90
73939;DHT22;62291;47.554;8.504;2022-09-12T06:57:30;14.00;99.90
73939;DHT22;62291;47.554;8.504;2022-09-12T07:00:02;14.00;99.90
73939;DHT22;62291;47.554;8.504;2022-09-12T07:02:28;14.10;99.90
73939;DHT22;62291;47.554;8.504;2022-09-12T07:04:54;14.30;99.90
73939;DHT22;62291;47.554;8.504;2022-09-12T07:07:20;14.40;99.90
73939;DHT22;62291;47.554;8.504;2022-09-12T07:09:45;14.20;99.90
73939;DHT22;62291;47.554;8.504;2022-09-12T07:12:11;14.40;99.90
73939;DHT22;62291;47.554;8.504;2022-09-12T07:14:36;14.70;99.90
73939;DHT22;62291;47.554;8.504;2022-09-12T07:17:02;14.90;99.90
73939;DHT22;62291;47.554;8.504;2022-09-12T07:19:28;15.00;99.90
73939;DHT22;62291;47.554;8.504;2022-09-12T07:21:54;15.40;99.90
73939;DHT22;62291;47.554;8.504;2022-09-12T07:24:19;15.90;99.90
73939;DHT22;62291;47.554;8.504;2022-09-12T07:26:45;16.20;99.90
73939;DHT22;62291;47.554;8.504;2022-09-12T07:29:13;16.40;99.90
73939;DHT22;62291;47.554;8.504;2022-09-12T07:31:40;16.40;99.90
73939;DHT22;62291;47.554;8.504;2022-09-12T07:34:06;16.40;99.90
73939;DHT22;62291;47.554;8.504;2022-09-12T07:36:33;16.50;99.90
73939;DHT22;62291;47.554;8.504;2022-09-12T07:38:58;16.60;99.90
73939;DHT22;62291;47.554;8.504;2022-09-12T07:41:29;16.80;99.90
73939;DHT22;62291;47.554;8.504;2022-09-12T07:43:57;16.80;99.90
73939;DHT22;62291;47.554;8.504;2022-09-12T07:46:24;16.80;99.90
73939;DHT22;62291;47.554;8.504;2022-09-12T07:48:55;17.10;99.90
73939;DHT22;62291;47.554;8.504;2022-09-12T07:51:22;17.40;99.90
73939;DHT22;62291;47.554;8.504;2022-09-12T07:53:48;17.40;99.90
73939;DHT22;62291;47.554;8.504;2022-09-12T07:56:15;17.40;99.90
73939;DHT22;62291;47.554;8.504;2022-09-12T07:58:41;17.90;99.90
73939;DHT22;62291;47.554;8.504;2022-09-12T08:01:15;19.30;99.90
73939;DHT22;62291;47.554;8.504;2022-09-12T08:03:43;20.80;99.90
73939;DHT22;62291;47.554;8.504;2022-09-12T08:06:12;22.00;99.90
73939;DHT22;62291;47.554;8.504;2022-09-12T08:08:39;22.80;99.90
73939;DHT22;62291;47.554;8.504;2022-09-12T08:11:07;23.50;99.90
73939;DHT22;62291;47.554;8.504;2022-09-12T08:13:35;23.60;99.90
73939;DHT22;62291;47.554;8.504;2022-09-12T08:16:03;23.50;99.90
73939;DHT22;62291;47.554;8.504;2022-09-12T08:18:30;23.00;99.90
73939;DHT22;62291;47.554;8.504;2022-09-12T08:21:02;23.50;99.90
73939;DHT22;62291;47.554;8.504;2022-09-12T08:23:29;24.60;99.90
73939;DHT22;62291;47.554;8.504;2022-09-12T08:25:56;24.70;99.90
73939;DHT22;62291;47.554;8.504;2022-09-12T08:28:22;25.60;99.90
73939;DHT22;62291;47.554;8.504;2022-09-12T08:30:48;26.20;98.70
73939;DHT22;62291;47.554;8.504;2022-09-12T08:33:14;26.50;96.90
73939;DHT22;62291;47.554;8.504;2022-09-12T08:35:40;26.20;95.80
73939;DHT22;62291;47.554;8.504;2022-09-12T08:38:05;25.60;96.10
73939;DHT22;62291;47.554;8.504;2022-09-12T08:40:33;24.90;97.20
73939;DHT22;62291;47.554;8.504;2022-09-12T08:43:48;24.70;98.90
73939;DHT22;62291;47.554;8.504;2022-09-12T08:46:21;24.60;97.90
73939;DHT22;62291;47.554;8.504;2022-09-12T08:48:47;24.30;98.80
73939;DHT22;62291;47.554;8.504;2022-09-12T08:51:15;24.90;97.80
73939;DHT22;62291;47.554;8.504;2022-09-12T08:53:48;25.20;97.70
73939;DHT22;62291;47.554;8.504;2022-09-12T08:56:15;25.20;96.90
73939;DHT22;62291;47.554;8.504;2022-09-12T08:58:43;25.50;97.10
73939;DHT22;62291;47.554;8.504;2022-09-12T09:01:30;25.20;96.70
73939;DHT22;62291;47.554;8.504;2022-09-12T09:04:18;25.40;95.80
73939;DHT22;62291;47.554;8.504;2022-09-12T09:12:39;24.80;95.80
73939;DHT22;62291;47.554;8.504;2022-09-12T09:18:22;25.10;95.50
73939;DHT22;62291;47.554;8.504;2022-09-12T09:20:56;25.10;95.40
73939;DHT22;62291;47.554;8.504;2022-09-12T09:23:29;25.20;96.00
73939;DHT22;62291;47.554;8.504;2022-09-12T09:26:12;25.10;95.90
73939;DHT22;62291;47.554;8.504;2022-09-12T09:28:46;25.30;95.50
73939;DHT22;62291;47.554;8.504;2022-09-12T09:31:15;25.20;94.80
73939;DHT22;62291;47.554;8.504;2022-09-12T09:33:41;25.50;95.10
73939;DHT22;62291;47.554;8.504;2022-09-12T09:38:47;25.00;95.30
73939;DHT22;62291;47.554;8.504;2022-09-12T09:44:00;24.40;96.50
73939;DHT22;62291;47.554;8.504;2022-09-12T09:46:27;24.10;97.10
73939;DHT22;62291;47.554;8.504;2022-09-12T09:48:54;24.20;98.30
73939;DHT22;62291;47.554;8.504;2022-09-12T09:51:27;24.30;97.50
73939;DHT22;62291;47.554;8.504;2022-09-12T09:54:22;24.30;96.40
73939;DHT22;62291;47.554;8.504;2022-09-12T09:56:49;24.10;96.50
73939;DHT22;62291;47.554;8.504;2022-09-12T09:59:24;24.60;97.40
73939;DHT22;62291;47.554;8.504;2022-09-12T10:02:00;24.90;96.50
73939;DHT22;62291;47.554;8.504;2022-09-12T10:04:34;24.70;95.90
73939;DHT22;62291;47.554;8.504;2022-09-12T10:07:02;24.00;97.70
73939;DHT22;62291;47.554;8.504;2022-09-12T10:09:33;24.10;97.20
73939;DHT22;62291;47.554;8.504;2022-09-12T10:12:23;24.50;97.40
73939;DHT22;62291;47.554;8.504;2022-09-12T10:15:04;24.30;96.00
73939;DHT22;62291;47.554;8.504;2022-09-12T10:17:45;24.50;97.50
73939;DHT22;62291;47.554;8.504;2022-09-12T10:20:31;24.60;95.00
73939;DHT22;62291;47.554;8.504;2022-09-12T10:22:59;24.70;93.90
73939;DHT22;62291;47.554;8.504;2022-09-12T10:25:26;24.70;94.50
73939;DHT22;62291;47.554;8.504;2022-09-12T10:27:55;24.60;94.50
73939;DHT22;62291;47.554;8.504;2022-09-12T10:30:21;24.50;94.40
73939;DHT22;62291;47.554;8.504;2022-09-12T10:32:53;24.30;96.50
73939;DHT22;62291;47.554;8.504;2022-09-12T10:35:28;24.20;96.20
73939;DHT22;62291;47.554;8.504;2022-09-12T10:38:02;24.30;95.80
73939;DHT22;62291;47.554;8.504;2022-09-12T10:40:33;24.30;95.30
73939;DHT22;62291;47.554;8.504;2022-09-12T10:43:02;24.90;95.20
73939;DHT22;62291;47.554;8.504;2022-09-12T10:45:40;24.50;94.90
73939;DHT22;62291;47.554;8.504;2022-09-12T10:50:49;25.40;94.80
73939;DHT22;62291;47.554;8.504;2022-09-12T10:53:31;26.30;93.80
73939;DHT22;62291;47.554;8.504;2022-09-12T10:56:17;27.00;92.70
73939;DHT22;62291;47.554;8.504;2022-09-12T11:01:44;27.70;90.40
73939;DHT22;62291;47.554;8.504;2022-09-12T11:13:11;26.40;92.80
73939;DHT22;62291;47.554;8.504;2022-09-12T11:24:02;25.60;94.10
73939;DHT22;62291;47.554;8.504;2022-09-12T11:37:36;26.20;92.70
73939;DHT22;62291;47.554;8.504;2022-09-12T11:45:43;25.20;93.40
73939;DHT22;62291;47.554;8.504;2022-09-12T11:50:53;24.70;95.80
73939;DHT22;62291;47.554;8.504;2022-09-12T11:53:27;24.80;96.30
73939;DHT22;62291;47.554;8.504;2022-09-12T11:56:17;25.00;95.40
73939;DHT22;62291;47.554;8.504;2022-09-12T11:59:08;25.30;95.90
73939;DHT22;62291;47.554;8.504;2022-09-12T12:01:41;25.10;93.90
73939;DHT22;62291;47.554;8.504;2022-09-12T12:04:11;25.10;94.30
73939;DHT22;62291;47.554;8.504;2022-09-12T12:06:53;25.20;95.70
73939;DHT22;62291;47.554;8.504;2022-09-12T12:09:21;25.20;94.30
73939;DHT22;62291;47.554;8.504;2022-09-12T12:11:51;25.30;93.70
73939;DHT22;62291;47.554;8.504;2022-09-12T12:14:36;25.30;94.10
73939;DHT22;62291;47.554;8.504;2022-09-12T12:17:03;25.20;94.40
73939;DHT22;62291;47.554;8.504;2022-09-12T12:19:35;25.10;94.10
73939;DHT22;62291;47.554;8.504;2022-09-12T12:22:22;25.10;94.60
73939;DHT22;62291;47.554;8.504;2022-09-12T12:25:04;25.10;94.20
73939;DHT22;62291;47.554;8.504;2022-09-12T12:38:30;25.10;94.20
73939;DHT22;62291;47.554;8.504;2022-09-12T12:43:47;24.70;95.30
73939;DHT22;62291;47.554;8.504;2022-09-12T12:46:21;24.60;95.00
73939;DHT22;62291;47.554;8.504;2022-09-12T12:49:10;24.90;95.00
73939;DHT22;62291;47.554;8.504;2022-09-12T12:52:02;25.20;95.20
73939;DHT22;62291;47.554;8.504;2022-09-12T12:54:49;25.40;93.40
73939;DHT22;62291;47.554;8.504;2022-09-12T12:57:17;25.50;93.90
73939;DHT22;62291;47.554;8.504;2022-09-12T12:59:57;25.70;95.00
73939;DHT22;62291;47.554;8.504;2022-09-12T13:02:36;26.00;95.10
73939;DHT22;62291;47.554;8.504;2022-09-12T13:05:16;26.20;93.60
73939;DHT22;62291;47.554;8.504;2022-09-12T13:07:43;26.00;94.70
73939;DHT22;62291;47.554;8.504;2022-09-12T13:10:23;25.90;93.40
73939;DHT22;62291;47.554;8.504;2022-09-12T13:12:52;25.70;92.40
73939;DHT22;62291;47.554;8.504;2022-09-12T13:18:25;25.30;92.70
73939;DHT22;62291;47.554;8.504;2022-09-12T13:21:05;25.00;93.10
73939;DHT22;62291;47.554;8.504;2022-09-12T13:23:32;25.20;94.60
73939;DHT22;62291;47.554;8.504;2022-09-12T13:26:07;25.40;93.30
73939;DHT22;62291;47.554;8.504;2022-09-12T13:28:34;25.20;94.60
73939;DHT22;62291;47.554;8.504;2022-09-12T13:39:16;25.70;92.80
73939;DHT22;62291;47.554;8.504;2022-09-12T13:44:24;26.00;93.50
73939;DHT22;62291;47.554;8.504;2022-09-12T13:46:51;26.10;93.50
73939;DHT22;62291;47.554;8.504;2022-09-12T13:52:02;26.10;92.70
73939;DHT22;62291;47.554;8.504;2022-09-12T13:54:30;25.90;92.80
73939;DHT22;62291;47.554;8.504;2022-09-12T13:56:56;25.50;92.00
73939;DHT22;62291;47.554;8.504;2022-09-12T13:59:21;25.40;93.80
73939;DHT22;62291;47.554;8.504;2022-09-12T14:01:47;25.20;93.80
73939;DHT22;62291;47.554;8.504;2022-09-12T14:04:24;25.30;93.90
73939;DHT22;62291;47.554;8.504;2022-09-12T14:07:16;25.50;93.40
73939;DHT22;62291;47.554;8.504;2022-09-12T14:09:45;25.60;93.70
73939;DHT22;62291;47.554;8.504;2022-09-12T14:12:24;25.50;91.40
73939;DHT22;62291;47.554;8.504;2022-09-12T14:14:51;25.40;91.70
73939;DHT22;62291;47.554;8.504;2022-09-12T14:19:59;25.40;93.20
73939;DHT22;62291;47.554;8.504;2022-09-12T14:22:28;25.30;92.20
73939;DHT22;62291;47.554;8.504;2022-09-12T14:24:55;25.20;93.70
73939;DHT22;62291;47.554;8.504;2022-09-12T14:27:51;25.20;92.50
73939;DHT22;62291;47.554;8.504;2022-09-12T14:30:27;25.00;94.30
73939;DHT22;62291;47.554;8.504;2022-09-12T14:33:21;24.90;93.10
73939;DHT22;62291;47.554;8.504;2022-09-12T14:35:52;24.80;93.40
73939;DHT22;62291;47.554;8.504;2022-09-12T14:38:44;24.70;91.80
73939;DHT22;62291;47.554;8.504;2022-09-12T14:41:12;24.50;94.20
73939;DHT22;62291;47.554;8.504;2022-09-12T14:43:44;24.40;94.70
73939;DHT22;62291;47.554;8.504;2022-09-12T14:46:27;24.20;92.10
73939;DHT22;62291;47.554;8.504;2022-09-12T14:49:31;24.20;93.20
73939;DHT22;62291;47.554;8.504;2022-09-12T14:52:00;24.10;94.20
73939;DHT22;62291;47.554;8.504;2022-09-12T14:57:05;23.90;93.40
73939;DHT22;62291;47.554;8.504;2022-09-12T15:04:49;23.90;93.10
73939;DHT22;62291;47.554;8.504;2022-09-12T15:10:04;23.80;91.30
73939;DHT22;62291;47.554;8.504;2022-09-12T15:12:30;23.70;91.90
73939;DHT22;62291;47.554;8.504;2022-09-12T15:14:59;23.60;92.40
73939;DHT22;62291;47.554;8.504;2022-09-12T15:17:28;23.60;93.30
73939;DHT22;62291;47.554;8.504;2022-09-12T15:19:53;23.60;92.80
73939;DHT22;62291;47.554;8.504;2022-09-12T15:22:21;23.60;92.50
73939;DHT22;62291;47.554;8.504;2022-09-12T15:24:48;23.50;92.80
73939;DHT22;62291;47.554;8.504;2022-09-12T15:27:14;23.40;92.80
73939;DHT22;62291;47.554;8.504;2022-09-12T15:29:39;23.40;93.10
73939;DHT22;62291;47.554;8.504;2022-09-12T15:32:05;23.40;94.30
73939;DHT22;62291;47.554;8.504;2022-09-12T15:34:36;23.40;94.90
73939;DHT22;62291;47.554;8.504;2022-09-12T15:37:04;23.30;95.00
73939;DHT22;62291;47.554;8.504;2022-09-12T15:39:29;23.30;96.10
73939;DHT22;62291;47.554;8.504;2022-09-12T15:41:55;23.20;96.30
73939;DHT22;62291;47.554;8.504;2022-09-12T15:44:21;23.10;94.80
73939;DHT22;62291;47.554;8.504;2022-09-12T15:46:47;23.10;94.30
73939;DHT22;62291;47.554;8.504;2022-09-12T15:49:13;23.10;94.20
73939;DHT22;62291;47.554;8.504;2022-09-12T15:51:39;23.10;94.90
73939;DHT22;62291;47.554;8.504;2022-09-12T15:54:04;23.00;96.00
73939;DHT22;62291;47.554;8.504;2022-09-12T15:56:30;23.00;94.80
73939;DHT22;62291;47.554;8.504;2022-09-12T15:58:56;23.00;95.20
73939;DHT22;62291;47.554;8.504;2022-09-12T16:01:21;22.90;95.60
73939;DHT22;62291;47.554;8.504;2022-09-12T16:03:47;22.90;95.20
73939;DHT22;62291;47.554;8.504;2022-09-12T16:06:13;22.80;97.10
73939;DHT22;62291;47.554;8.504;2022-09-12T16:08:40;22.70;97.30
73939;DHT22;62291;47.554;8.504;2022-09-12T16:11:15;22.70;98.30
73939;DHT22;62291;47.554;8.504;2022-09-12T16:13:43;22.60;98.90
73939;DHT22;62291;47.554;8.504;2022-09-12T16:16:08;22.50;97.30
73939;DHT22;62291;47.554;8.504;2022-09-12T16:18:34;22.40;97.90
73939;DHT22;62291;47.554;8.504;2022-09-12T16:20:59;22.40;98.10
73939;DHT22;62291;47.554;8.504;2022-09-12T16:23:28;22.30;98.10
73939;DHT22;62291;47.554;8.504;2022-09-12T16:26:04;22.20;97.90
73939;DHT22;62291;47.554;8.504;2022-09-12T16:28:30;22.20;99.10
73939;DHT22;62291;47.554;8.504;2022-09-12T16:31:01;22.10;99.10
73939;DHT22;62291;47.554;8.504;2022-09-12T16:33:28;22.00;98.90
73939;DHT22;62291;47.554;8.504;2022-09-12T16:36:15;21.90;99.90
73939;DHT22;62291;47.554;8.504;2022-09-12T16:38:52;21.80;98.90
73939;DHT22;62291;47.554;8.504;2022-09-12T16:41:20;21.70;99.30
73939;DHT22;62291;47.554;8.504;2022-09-12T16:43:46;21.60;99.90
73939;DHT22;62291;47.554;8.504;2022-09-12T16:46:14;21.50;99.90
73939;DHT22;62291;47.554;8.504;2022-09-12T16:48:45;21.40;99.90
73939;DHT22;62291;47.554;8.504;2022-09-12T16:51:12;21.20;99.90
73939;DHT22;62291;47.554;8.504;2022-09-12T16:53:38;21.10;99.90
73939;DHT22;62291;47.554;8.504;2022-09-12T16:56:04;21.10;99.90
73939;DHT22;62291;47.554;8.504;2022-09-12T16:58:35;21.00;99.90
73939;DHT22;62291;47.554;8.504;2022-09-12T17:01:03;20.90;99.90
73939;DHT22;62291;47.554;8.504;2022-09-12T17:03:29;20.80;99.90
73939;DHT22;62291;47.554;8.504;2022-09-12T17:06:14;20.70;99.90
73939;DHT22;62291;47.554;8.504;2022-09-12T17:08:42;20.60;99.90
73939;DHT22;62291;47.554;8.504;2022-09-12T17:11:11;20.40;99.90
73939;DHT22;62291;47.554;8.504;2022-09-12T17:13:37;20.30;99.90
73939;DHT22;62291;47.554;8.504;2022-09-12T17:16:08;20.20;99.90
73939;DHT22;62291;47.554;8.504;2022-09-12T17:18:36;20.00;99.90
73939;DHT22;62291;47.554;8.504;2022-09-12T17:21:02;19.80;99.90
73939;DHT22;62291;47.554;8.504;2022-09-12T17:23:28;19.70;99.90
73939;DHT22;62291;47.554;8.504;2022-09-12T17:25:54;19.50;99.90
73939;DHT22;62291;47.554;8.504;2022-09-12T17:28:20;19.40;99.90
73939;DHT22;62291;47.554;8.504;2022-09-12T17:30:53;19.30;99.90
73939;DHT22;62291;47.554;8.504;2022-09-12T17:33:19;19.20;99.90
73939;DHT22;62291;47.554;8.504;2022-09-12T17:35:45;19.10;99.90
73939;DHT22;62291;47.554;8.504;2022-09-12T17:38:10;19.00;99.90
73939;DHT22;62291;47.554;8.504;2022-09-12T17:40:36;19.00;99.90
73939;DHT22;62291;47.554;8.504;2022-09-12T17:43:02;18.90;99.90
73939;DHT22;62291;47.554;8.504;2022-09-12T17:45:28;18.80;99.90
73939;DHT22;62291;47.554;8.504;2022-09-12T17:47:53;18.80;99.90
73939;DHT22;62291;47.554;8.504;2022-09-12T17:50:19;18.70;99.90
73939;DHT22;62291;47.554;8.504;2022-09-12T17:52:45;18.60;99.90
73939;DHT22;62291;47.554;8.504;2022-09-12T17:55:12;18.50;99.90
73939;DHT22;62291;47.554;8.504;2022-09-12T17:57:39;18.40;99.90
73939;DHT22;62291;47.554;8.504;2022-09-12T18:00:05;18.30;99.90
73939;DHT22;62291;47.554;8.504;2022-09-12T18:02:31;18.20;99.90
73939;DHT22;62291;47.554;8.504;2022-09-12T18:04:57;18.10;99.90
73939;DHT22;62291;47.554;8.504;2022-09-12T18:07:23;18.00;99.90
73939;DHT22;62291;47.554;8.504;2022-09-12T18:09:50;17.90;99.90
73939;DHT22;62291;47.554;8.504;2022-09-12T18:12:17;17.80;99.90
73939;DHT22;62291;47.554;8.504;2022-09-12T18:14:44;17.70;99.90